sensor_id;sensor_type;location;lat;lon;timestamp;P1;durP1;ratioP1;P2;durP2;ratioP2
62994;SDS011;49086;52.300;4.850;2022-12-22T00:02:22;33.13;;;17.63;;
62994;SDS011;49086;52.300;4.850;2022-12-22T00:05:16;40.70;;;18.42;;
62994;SDS011;49086;52.300;4.850;2022-12-22T00:08:02;35.97;;;17.38;;
62994;SDS011;49086;52.300;4.850;2022-12-22T00:10:46;38.97;;;18.60;;
62994;SDS011;49086;52.300;4.850;2022-12-22T00:13:31;40.70;;;18.30;;
62994;SDS011;49086;52.300;4.850;2022-12-22T00:16:25;37.35;;;17.83;;
62994;SDS011;49086;52.300;4.850;2022-12-22T00:19:12;43.65;;;17.98;;
62994;SDS011;49086;52.300;4.850;2022-12-22T00:21:57;39.88;;;17.95;;
62994;SDS011;49086;52.300;4.850;2022-12-22T00:24:49;36.80;;;18.15;;
62994;SDS011;49086;52.300;4.850;2022-12-22T00:27:32;37.22;;;17.02;;
62994;SDS011;49086;52.300;4.850;2022-12-22T00:30:17;38.10;;;17.50;;
62994;SDS011;49086;52.300;4.850;2022-12-22T00:33:02;37.90;;;18.35;;
62994;SDS011;49086;52.300;4.850;2022-12-22T00:35:46;35.22;;;16.80;;
62994;SDS011;49086;52.300;4.850;2022-12-22T00:38:31;36.72;;;17.23;;
62994;SDS011;49086;52.300;4.850;2022-12-22T00:41:16;37.65;;;17.38;;
62994;SDS011;49086;52.300;4.850;2022-12-22T00:44:00;36.08;;;16.50;;
62994;SDS011;49086;52.300;4.850;2022-12-22T00:46:44;34.72;;;17.35;;
62994;SDS011;49086;52.300;4.850;2022-12-22T00:49:33;35.58;;;16.55;;
62994;SDS011;49086;52.300;4.850;2022-12-22T00:52:17;32.67;;;16.45;;
62994;SDS011;49086;52.300;4.850;2022-12-22T00:55:03;36.95;;;17.48;;
62994;SDS011;49086;52.300;4.850;2022-12-22T00:57:55;31.58;;;16.30;;
62994;SDS011;49086;52.300;4.850;2022-12-22T01:00:40;37.45;;;17.63;;
62994;SDS011;49086;52.300;4.850;2022-12-22T01:03:26;40.20;;;17.77;;
62994;SDS011;49086;52.300;4.850;2022-12-22T01:06:10;38.80;;;18.33;;
62994;SDS011;49086;52.300;4.850;2022-12-22T01:08:54;38.25;;;18.23;;
62994;SDS011;49086;52.300;4.850;2022-12-22T01:11:39;40.30;;;18.73;;
62994;SDS011;49086;52.300;4.850;2022-12-22T01:14:23;40.47;;;19.35;;
62994;SDS011;49086;52.300;4.850;2022-12-22T01:17:10;39.30;;;18.25;;
62994;SDS011;49086;52.300;4.850;2022-12-22T01:19:54;41.00;;;19.13;;
62994;SDS011;49086;52.300;4.850;2022-12-22T01:22:38;44.22;;;18.27;;
62994;SDS011;49086;52.300;4.850;2022-12-22T01:28:05;41.17;;;19.23;;
62994;SDS011;49086;52.300;4.850;2022-12-22T01:30:51;44.17;;;18.50;;
62994;SDS011;49086;52.300;4.850;2022-12-22T01:33:35;44.55;;;19.15;;
62994;SDS011;49086;52.300;4.850;2022-12-22T01:36:19;39.13;;;18.35;;
62994;SDS011;49086;52.300;4.850;2022-12-22T01:39:03;41.00;;;18.77;;
62994;SDS011;49086;52.300;4.850;2022-12-22T01:44:30;36.83;;;16.83;;
62994;SDS011;49086;52.300;4.850;2022-12-22T01:49:58;36.00;;;17.60;;
62994;SDS011;49086;52.300;4.850;2022-12-22T01:55:26;42.72;;;17.70;;
62994;SDS011;49086;52.300;4.850;2022-12-22T02:00:54;39.88;;;17.30;;
62994;SDS011;49086;52.300;4.850;2022-12-22T02:03:37;39.65;;;18.75;;
62994;SDS011;49086;52.300;4.850;2022-12-22T02:09:16;41.88;;;18.83;;
62994;SDS011;49086;52.300;4.850;2022-12-22T02:12:18;38.88;;;17.50;;
62994;SDS011;49086;52.300;4.850;2022-12-22T02:15:18;39.83;;;17.48;;
62994;SDS011;49086;52.300;4.850;2022-12-22T02:18:10;38.78;;;18.05;;
62994;SDS011;49086;52.300;4.850;2022-12-22T02:26:49;39.47;;;19.13;;
62994;SDS011;49086;52.300;4.850;2022-12-22T02:29:51;35.67;;;18.25;;
62994;SDS011;49086;52.300;4.850;2022-12-22T02:32:37;40.80;;;17.65;;
62994;SDS011;49086;52.300;4.850;2022-12-22T02:35:22;40.65;;;18.88;;
62994;SDS011;49086;52.300;4.850;2022-12-22T02:38:10;40.88;;;18.38;;
62994;SDS011;49086;52.300;4.850;2022-12-22T02:46:25;46.00;;;18.40;;
62994;SDS011;49086;52.300;4.850;2022-12-22T02:49:18;41.42;;;18.33;;
62994;SDS011;49086;52.300;4.850;2022-12-22T02:52:11;42.97;;;19.73;;
62994;SDS011;49086;52.300;4.850;2022-12-22T02:54:57;38.97;;;19.10;;
62994;SDS011;49086;52.300;4.850;2022-12-22T02:57:40;46.00;;;19.52;;
62994;SDS011;49086;52.300;4.850;2022-12-22T03:00:24;42.42;;;18.60;;
62994;SDS011;49086;52.300;4.850;2022-12-22T03:05:53;44.90;;;18.77;;
62994;SDS011;49086;52.300;4.850;2022-12-22T03:08:36;41.88;;;18.55;;
62994;SDS011;49086;52.300;4.850;2022-12-22T03:11:32;43.50;;;19.10;;
62994;SDS011;49086;52.300;4.850;2022-12-22T03:14:16;36.33;;;17.50;;
62994;SDS011;49086;52.300;4.850;2022-12-22T03:17:01;42.33;;;18.95;;
62994;SDS011;49086;52.300;4.850;2022-12-22T03:19:47;40.90;;;17.83;;
62994;SDS011;49086;52.300;4.850;2022-12-22T03:22:30;44.38;;;19.33;;
62994;SDS011;49086;52.300;4.850;2022-12-22T03:28:01;46.88;;;19.65;;
62994;SDS011;49086;52.300;4.850;2022-12-22T03:30:28;47.17;;;19.35;;
62994;SDS011;49086;52.300;4.850;2022-12-22T03:32:54;46.70;;;19.02;;
62994;SDS011;49086;52.300;4.850;2022-12-22T03:35:19;44.63;;;18.67;;
62994;SDS011;49086;52.300;4.850;2022-12-22T03:37:45;41.25;;;16.55;;
62994;SDS011;49086;52.300;4.850;2022-12-22T03:40:11;43.23;;;19.03;;
62994;SDS011;49086;52.300;4.850;2022-12-22T03:42:36;41.10;;;17.52;;
62994;SDS011;49086;52.300;4.850;2022-12-22T03:48:04;37.38;;;17.08;;
62994;SDS011;49086;52.300;4.850;2022-12-22T03:50:40;35.17;;;16.58;;
62994;SDS011;49086;52.300;4.850;2022-12-22T03:53:08;50.45;;;18.75;;
62994;SDS011;49086;52.300;4.850;2022-12-22T03:55:50;42.33;;;18.85;;
62994;SDS011;49086;52.300;4.850;2022-12-22T03:58:27;51.45;;;18.55;;
62994;SDS011;49086;52.300;4.850;2022-12-22T04:01:26;47.83;;;19.58;;
62994;SDS011;49086;52.300;4.850;2022-12-22T04:03:47;48.65;;;18.58;;
62994;SDS011;49086;52.300;4.850;2022-12-22T04:06:28;49.80;;;20.52;;
62994;SDS011;49086;52.300;4.850;2022-12-22T04:08:55;43.55;;;18.85;;
62994;SDS011;49086;52.300;4.850;2022-12-22T04:11:22;46.88;;;19.63;;
62994;SDS011;49086;52.300;4.850;2022-12-22T04:14:07;52.95;;;20.75;;
62994;SDS011;49086;52.300;4.850;2022-12-22T04:16:44;52.10;;;20.33;;
62994;SDS011;49086;52.300;4.850;2022-12-22T04:19:15;52.80;;;20.52;;
62994;SDS011;49086;52.300;4.850;2022-12-22T04:21:50;61.25;;;20.60;;
62994;SDS011;49086;52.300;4.850;2022-12-22T04:24:16;58.35;;;22.08;;
62994;SDS011;49086;52.300;4.850;2022-12-22T04:26:51;56.15;;;21.58;;
62994;SDS011;49086;52.300;4.850;2022-12-22T04:29:34;57.45;;;21.65;;
62994;SDS011;49086;52.300;4.850;2022-12-22T04:32:02;49.88;;;18.75;;
62994;SDS011;49086;52.300;4.850;2022-12-22T04:34:28;54.50;;;19.17;;
62994;SDS011;49086;52.300;4.850;2022-12-22T04:36:54;61.15;;;19.75;;
62994;SDS011;49086;52.300;4.850;2022-12-22T04:39:20;54.00;;;19.90;;
62994;SDS011;49086;52.300;4.850;2022-12-22T04:44:45;55.40;;;20.75;;
62994;SDS011;49086;52.300;4.850;2022-12-22T04:47:19;54.55;;;21.45;;
62994;SDS011;49086;52.300;4.850;2022-12-22T04:49:45;58.92;;;20.05;;
62994;SDS011;49086;52.300;4.850;2022-12-22T04:52:14;50.47;;;16.70;;
62994;SDS011;49086;52.300;4.850;2022-12-22T04:54:44;50.53;;;16.17;;
62994;SDS011;49086;52.300;4.850;2022-12-22T04:57:10;49.55;;;16.60;;
62994;SDS011;49086;52.300;4.850;2022-12-22T04:59:35;47.90;;;16.77;;
62994;SDS011;49086;52.300;4.850;2022-12-22T05:02:00;54.50;;;17.40;;
62994;SDS011;49086;52.300;4.850;2022-12-22T05:04:27;48.72;;;17.23;;
62994;SDS011;49086;52.300;4.850;2022-12-22T05:07:05;52.42;;;17.02;;
62994;SDS011;49086;52.300;4.850;2022-12-22T05:10:08;56.33;;;16.38;;
62994;SDS011;49086;52.300;4.850;2022-12-22T05:12:41;49.08;;;16.38;;
62994;SDS011;49086;52.300;4.850;2022-12-22T05:15:25;47.90;;;16.27;;
62994;SDS011;49086;52.300;4.850;2022-12-22T05:17:55;52.67;;;17.63;;
62994;SDS011;49086;52.300;4.850;2022-12-22T05:20:30;61.28;;;15.60;;
62994;SDS011;49086;52.300;4.850;2022-12-22T05:22:58;53.13;;;16.70;;
62994;SDS011;49086;52.300;4.850;2022-12-22T05:25:24;54.47;;;17.17;;
62994;SDS011;49086;52.300;4.850;2022-12-22T05:28:10;52.72;;;16.65;;
62994;SDS011;49086;52.300;4.850;2022-12-22T05:30:39;52.33;;;18.23;;
62994;SDS011;49086;52.300;4.850;2022-12-22T05:33:21;59.53;;;17.08;;
62994;SDS011;49086;52.300;4.850;2022-12-22T05:35:47;60.15;;;18.15;;
62994;SDS011;49086;52.300;4.850;2022-12-22T05:41:03;57.08;;;16.05;;
62994;SDS011;49086;52.300;4.850;2022-12-22T05:46:25;50.60;;;16.15;;
62994;SDS011;49086;52.300;4.850;2022-12-22T05:48:52;53.75;;;16.38;;
62994;SDS011;49086;52.300;4.850;2022-12-22T05:51:20;56.70;;;17.10;;
62994;SDS011;49086;52.300;4.850;2022-12-22T05:53:46;54.50;;;16.98;;
62994;SDS011;49086;52.300;4.850;2022-12-22T05:56:18;49.92;;;17.40;;
62994;SDS011;49086;52.300;4.850;2022-12-22T05:58:49;52.35;;;17.10;;
62994;SDS011;49086;52.300;4.850;2022-12-22T06:01:16;50.45;;;14.10;;
62994;SDS011;49086;52.300;4.850;2022-12-22T06:03:41;52.83;;;14.70;;
62994;SDS011;49086;52.300;4.850;2022-12-22T06:06:13;50.80;;;15.55;;
62994;SDS011;49086;52.300;4.850;2022-12-22T06:08:38;49.55;;;15.88;;
62994;SDS011;49086;52.300;4.850;2022-12-22T06:11:08;49.45;;;15.52;;
62994;SDS011;49086;52.300;4.850;2022-12-22T06:13:35;45.33;;;13.70;;
62994;SDS011;49086;52.300;4.850;2022-12-22T06:16:01;48.03;;;13.93;;
62994;SDS011;49086;52.300;4.850;2022-12-22T06:18:27;49.83;;;15.50;;
62994;SDS011;49086;52.300;4.850;2022-12-22T06:20:56;47.10;;;13.77;;
62994;SDS011;49086;52.300;4.850;2022-12-22T06:23:24;48.10;;;15.80;;
62994;SDS011;49086;52.300;4.850;2022-12-22T06:26:02;45.40;;;12.57;;
62994;SDS011;49086;52.300;4.850;2022-12-22T06:28:28;51.10;;;12.98;;
62994;SDS011;49086;52.300;4.850;2022-12-22T06:31:05;41.67;;;14.65;;
62994;SDS011;49086;52.300;4.850;2022-12-22T06:33:33;44.60;;;12.98;;
62994;SDS011;49086;52.300;4.850;2022-12-22T06:39:05;45.08;;;12.20;;
62994;SDS011;49086;52.300;4.850;2022-12-22T06:41:40;41.25;;;12.00;;
62994;SDS011;49086;52.300;4.850;2022-12-22T06:44:23;38.00;;;12.65;;
62994;SDS011;49086;52.300;4.850;2022-12-22T06:46:50;51.38;;;13.85;;
62994;SDS011;49086;52.300;4.850;2022-12-22T06:49:23;43.15;;;13.85;;
62994;SDS011;49086;52.300;4.850;2022-12-22T06:54:37;36.13;;;12.60;;
62994;SDS011;49086;52.300;4.850;2022-12-22T06:57:02;37.33;;;11.52;;
62994;SDS011;49086;52.300;4.850;2022-12-22T06:59:29;37.97;;;12.63;;
62994;SDS011;49086;52.300;4.850;2022-12-22T07:01:54;38.85;;;10.57;;
62994;SDS011;49086;52.300;4.850;2022-12-22T07:04:21;28.67;;;11.33;;
62994;SDS011;49086;52.300;4.850;2022-12-22T07:06:47;33.90;;;10.77;;
62994;SDS011;49086;52.300;4.850;2022-12-22T07:09:15;30.50;;;10.38;;
62994;SDS011;49086;52.300;4.850;2022-12-22T07:11:52;29.75;;;9.95;;
62994;SDS011;49086;52.300;4.850;2022-12-22T07:14:24;33.53;;;10.77;;
62994;SDS011;49086;52.300;4.850;2022-12-22T07:16:55;28.98;;;9.85;;
62994;SDS011;49086;52.300;4.850;2022-12-22T07:19:37;29.95;;;9.13;;
62994;SDS011;49086;52.300;4.850;2022-12-22T07:22:34;28.58;;;9.95;;
62994;SDS011;49086;52.300;4.850;2022-12-22T07:25:04;25.15;;;9.38;;
62994;SDS011;49086;52.300;4.850;2022-12-22T07:27:29;20.75;;;8.48;;
62994;SDS011;49086;52.300;4.850;2022-12-22T07:29:57;27.55;;;8.57;;
62994;SDS011;49086;52.300;4.850;2022-12-22T07:35:10;23.98;;;8.27;;
62994;SDS011;49086;52.300;4.850;2022-12-22T07:37:35;26.00;;;9.32;;
62994;SDS011;49086;52.300;4.850;2022-12-22T07:40:01;21.37;;;8.00;;
62994;SDS011;49086;52.300;4.850;2022-12-22T07:42:30;20.13;;;7.90;;
62994;SDS011;49086;52.300;4.850;2022-12-22T07:45:12;21.13;;;6.80;;
62994;SDS011;49086;52.300;4.850;2022-12-22T07:47:41;21.98;;;6.68;;
62994;SDS011;49086;52.300;4.850;2022-12-22T07:50:26;18.15;;;7.22;;
62994;SDS011;49086;52.300;4.850;2022-12-22T07:52:58;24.25;;;7.28;;
62994;SDS011;49086;52.300;4.850;2022-12-22T07:55:52;19.38;;;7.57;;
62994;SDS011;49086;52.300;4.850;2022-12-22T07:58:28;21.70;;;6.28;;
62994;SDS011;49086;52.300;4.850;2022-12-22T08:01:15;16.75;;;5.63;;
62994;SDS011;49086;52.300;4.850;2022-12-22T08:03:42;15.48;;;6.03;;
62994;SDS011;49086;52.300;4.850;2022-12-22T08:06:08;20.38;;;6.47;;
62994;SDS011;49086;52.300;4.850;2022-12-22T08:08:34;13.40;;;5.80;;
62994;SDS011;49086;52.300;4.850;2022-12-22T08:11:00;13.75;;;5.95;;
62994;SDS011;49086;52.300;4.850;2022-12-22T08:13:48;13.05;;;6.10;;
62994;SDS011;49086;52.300;4.850;2022-12-22T08:16:15;19.17;;;6.75;;
62994;SDS011;49086;52.300;4.850;2022-12-22T08:18:40;15.20;;;5.53;;
62994;SDS011;49086;52.300;4.850;2022-12-22T08:21:27;13.27;;;5.80;;
62994;SDS011;49086;52.300;4.850;2022-12-22T08:24:12;15.23;;;6.07;;
62994;SDS011;49086;52.300;4.850;2022-12-22T08:26:42;12.55;;;6.00;;
62994;SDS011;49086;52.300;4.850;2022-12-22T08:29:12;16.35;;;5.45;;
62994;SDS011;49086;52.300;4.850;2022-12-22T08:32:16;13.25;;;6.00;;
62994;SDS011;49086;52.300;4.850;2022-12-22T08:35:04;12.95;;;5.47;;
62994;SDS011;49086;52.300;4.850;2022-12-22T08:38:00;12.75;;;7.22;;
62994;SDS011;49086;52.300;4.850;2022-12-22T08:40:34;15.45;;;7.15;;
62994;SDS011;49086;52.300;4.850;2022-12-22T08:43:41;14.32;;;8.10;;
62994;SDS011;49086;52.300;4.850;2022-12-22T08:52:37;12.10;;;6.05;;
62994;SDS011;49086;52.300;4.850;2022-12-22T08:55:35;15.95;;;6.85;;
62994;SDS011;49086;52.300;4.850;2022-12-22T08:58:41;16.23;;;5.20;;
62994;SDS011;49086;52.300;4.850;2022-12-22T09:01:14;10.85;;;4.82;;
62994;SDS011;49086;52.300;4.850;2022-12-22T09:03:42;12.75;;;5.55;;
62994;SDS011;49086;52.300;4.850;2022-12-22T09:28:12;10.82;;;4.07;;
62994;SDS011;49086;52.300;4.850;2022-12-22T09:30:40;14.18;;;4.95;;
62994;SDS011;49086;52.300;4.850;2022-12-22T09:33:06;16.17;;;4.38;;
62994;SDS011;49086;52.300;4.850;2022-12-22T09:35:32;9.65;;;4.78;;
62994;SDS011;49086;52.300;4.850;2022-12-22T09:37:58;14.75;;;5.15;;
62994;SDS011;49086;52.300;4.850;2022-12-22T09:40:24;13.73;;;4.55;;
62994;SDS011;49086;52.300;4.850;2022-12-22T09:42:50;8.90;;;4.97;;
62994;SDS011;49086;52.300;4.850;2022-12-22T09:45:17;11.67;;;4.40;;
62994;SDS011;49086;52.300;4.850;2022-12-22T09:47:48;18.65;;;5.63;;
62994;SDS011;49086;52.300;4.850;2022-12-22T09:50:19;11.65;;;4.45;;
62994;SDS011;49086;52.300;4.850;2022-12-22T09:52:48;11.48;;;5.38;;
62994;SDS011;49086;52.300;4.850;2022-12-22T09:58:00;16.92;;;4.97;;
62994;SDS011;49086;52.300;4.850;2022-12-22T10:00:26;10.77;;;4.80;;
62994;SDS011;49086;52.300;4.850;2022-12-22T10:05:20;15.63;;;5.03;;
62994;SDS011;49086;52.300;4.850;2022-12-22T10:07:52;12.93;;;4.43;;
62994;SDS011;49086;52.300;4.850;2022-12-22T10:10:22;12.60;;;4.72;;
62994;SDS011;49086;52.300;4.850;2022-12-22T10:12:49;9.00;;;4.93;;
62994;SDS011;49086;52.300;4.850;2022-12-22T10:15:14;10.95;;;4.35;;
62994;SDS011;49086;52.300;4.850;2022-12-22T10:17:41;9.35;;;4.32;;
62994;SDS011;49086;52.300;4.850;2022-12-22T10:22:36;9.20;;;3.95;;
62994;SDS011;49086;52.300;4.850;2022-12-22T10:25:05;10.02;;;4.30;;
62994;SDS011;49086;52.300;4.850;2022-12-22T10:27:32;12.52;;;3.90;;
62994;SDS011;49086;52.300;4.850;2022-12-22T10:33:11;12.68;;;3.85;;
62994;SDS011;49086;52.300;4.850;2022-12-22T10:40:48;6.70;;;3.33;;
62994;SDS011;49086;52.300;4.850;2022-12-22T10:43:18;7.30;;;3.08;;
62994;SDS011;49086;52.300;4.850;2022-12-22T10:45:48;6.95;;;3.13;;
62994;SDS011;49086;52.300;4.850;2022-12-22T10:48:13;7.55;;;3.67;;
62994;SDS011;49086;52.300;4.850;2022-12-22T10:50:44;13.60;;;4.07;;
62994;SDS011;49086;52.300;4.850;2022-12-22T10:53:10;9.65;;;3.30;;
62994;SDS011;49086;52.300;4.850;2022-12-22T10:55:35;12.20;;;3.75;;
62994;SDS011;49086;52.300;4.850;2022-12-22T11:00:34;11.88;;;3.83;;
62994;SDS011;49086;52.300;4.850;2022-12-22T11:03:11;11.10;;;3.42;;
62994;SDS011;49086;52.300;4.850;2022-12-22T11:05:40;11.45;;;3.38;;
62994;SDS011;49086;52.300;4.850;2022-12-22T11:13:55;10.25;;;3.83;;
62994;SDS011;49086;52.300;4.850;2022-12-22T11:16:35;8.60;;;3.25;;
62994;SDS011;49086;52.300;4.850;2022-12-22T11:19:14;12.70;;;3.33;;
62994;SDS011;49086;52.300;4.850;2022-12-22T11:30:03;8.02;;;3.00;;
62994;SDS011;49086;52.300;4.850;2022-12-22T11:35:02;6.88;;;3.38;;
62994;SDS011;49086;52.300;4.850;2022-12-22T11:42:56;12.73;;;3.30;;
62994;SDS011;49086;52.300;4.850;2022-12-22T11:50:44;8.82;;;3.40;;
62994;SDS011;49086;52.300;4.850;2022-12-22T11:55:46;11.82;;;3.50;;
62994;SDS011;49086;52.300;4.850;2022-12-22T12:00:47;12.40;;;4.05;;
62994;SDS011;49086;52.300;4.850;2022-12-22T12:03:28;8.57;;;3.85;;
62994;SDS011;49086;52.300;4.850;2022-12-22T12:13:53;10.80;;;3.53;;
62994;SDS011;49086;52.300;4.850;2022-12-22T12:16:32;10.07;;;5.03;;
62994;SDS011;49086;52.300;4.850;2022-12-22T12:21:28;10.45;;;6.43;;
62994;SDS011;49086;52.300;4.850;2022-12-22T12:27:23;10.25;;;5.97;;
62994;SDS011;49086;52.300;4.850;2022-12-22T12:29:19;11.18;;;6.00;;
62994;SDS011;49086;52.300;4.850;2022-12-22T12:32:00;11.93;;;6.63;;
62994;SDS011;49086;52.300;4.850;2022-12-22T12:34:33;14.32;;;8.68;;
62994;SDS011;49086;52.300;4.850;2022-12-22T12:37:13;16.52;;;8.05;;
62994;SDS011;49086;52.300;4.850;2022-12-22T12:50:50;14.32;;;7.65;;
62994;SDS011;49086;52.300;4.850;2022-12-22T12:53:16;13.82;;;7.22;;
62994;SDS011;49086;52.300;4.850;2022-12-22T13:01:52;15.18;;;7.93;;
62994;SDS011;49086;52.300;4.850;2022-12-22T13:07:04;19.65;;;7.00;;
62994;SDS011;49086;52.300;4.850;2022-12-22T13:09:31;18.33;;;8.18;;
62994;SDS011;49086;52.300;4.850;2022-12-22T13:12:31;12.85;;;6.45;;
62994;SDS011;49086;52.300;4.850;2022-12-22T13:15:03;15.00;;;7.30;;
62994;SDS011;49086;52.300;4.850;2022-12-22T13:17:32;11.35;;;6.75;;
62994;SDS011;49086;52.300;4.850;2022-12-22T13:19:57;18.15;;;7.78;;
62994;SDS011;49086;52.300;4.850;2022-12-22T13:22:25;19.02;;;8.23;;
62994;SDS011;49086;52.300;4.850;2022-12-22T13:24:50;13.45;;;7.70;;
62994;SDS011;49086;52.300;4.850;2022-12-22T13:27:16;13.55;;;7.30;;
62994;SDS011;49086;52.300;4.850;2022-12-22T13:29:43;17.15;;;7.38;;
62994;SDS011;49086;52.300;4.850;2022-12-22T13:32:20;16.45;;;7.90;;
62994;SDS011;49086;52.300;4.850;2022-12-22T13:35:32;16.45;;;7.80;;
62994;SDS011;49086;52.300;4.850;2022-12-22T13:37:37;17.42;;;8.38;;
62994;SDS011;49086;52.300;4.850;2022-12-22T13:42:36;17.50;;;8.63;;
62994;SDS011;49086;52.300;4.850;2022-12-22T13:45:05;21.08;;;9.32;;
62994;SDS011;49086;52.300;4.850;2022-12-22T13:47:46;19.27;;;9.05;;
62994;SDS011;49086;52.300;4.850;2022-12-22T13:50:18;18.40;;;8.93;;
62994;SDS011;49086;52.300;4.850;2022-12-22T13:52:44;21.50;;;9.63;;
62994;SDS011;49086;52.300;4.850;2022-12-22T13:55:12;16.88;;;8.93;;
62994;SDS011;49086;52.300;4.850;2022-12-22T13:57:44;16.35;;;8.60;;
62994;SDS011;49086;52.300;4.850;2022-12-22T14:00:25;19.30;;;9.23;;
62994;SDS011;49086;52.300;4.850;2022-12-22T14:02:57;17.83;;;9.15;;
62994;SDS011;49086;52.300;4.850;2022-12-22T14:05:38;20.17;;;9.80;;
62994;SDS011;49086;52.300;4.850;2022-12-22T14:08:08;17.67;;;9.18;;
62994;SDS011;49086;52.300;4.850;2022-12-22T14:11:11;26.70;;;11.35;;
62994;SDS011;49086;52.300;4.850;2022-12-22T14:20:39;24.77;;;11.52;;
62994;SDS011;49086;52.300;4.850;2022-12-22T14:29:21;24.48;;;12.20;;
62994;SDS011;49086;52.300;4.850;2022-12-22T14:31:49;22.17;;;11.45;;
62994;SDS011;49086;52.300;4.850;2022-12-22T14:34:22;21.98;;;12.30;;
62994;SDS011;49086;52.300;4.850;2022-12-22T14:36:49;23.13;;;12.27;;
62994;SDS011;49086;52.300;4.850;2022-12-22T14:39:22;21.30;;;11.00;;
62994;SDS011;49086;52.300;4.850;2022-12-22T14:41:51;21.52;;;11.57;;
62994;SDS011;49086;52.300;4.850;2022-12-22T14:58:12;23.05;;;12.30;;
62994;SDS011;49086;52.300;4.850;2022-12-22T15:00:41;23.48;;;12.23;;
62994;SDS011;49086;52.300;4.850;2022-12-22T15:03:29;27.77;;;12.77;;
62994;SDS011;49086;52.300;4.850;2022-12-22T15:06:30;26.40;;;12.75;;
62994;SDS011;49086;52.300;4.850;2022-12-22T15:09:35;24.95;;;12.10;;
62994;SDS011;49086;52.300;4.850;2022-12-22T15:12:02;27.17;;;12.00;;
62994;SDS011;49086;52.300;4.850;2022-12-22T15:14:53;23.90;;;12.02;;
62994;SDS011;49086;52.300;4.850;2022-12-22T15:17:21;27.35;;;13.35;;
62994;SDS011;49086;52.300;4.850;2022-12-22T15:19:47;25.40;;;11.88;;
62994;SDS011;49086;52.300;4.850;2022-12-22T15:22:13;31.58;;;13.70;;
62994;SDS011;49086;52.300;4.850;2022-12-22T15:24:38;26.65;;;12.50;;
62994;SDS011;49086;52.300;4.850;2022-12-22T15:27:07;32.83;;;13.68;;
62994;SDS011;49086;52.300;4.850;2022-12-22T15:29:33;27.38;;;13.05;;
62994;SDS011;49086;52.300;4.850;2022-12-22T15:32:09;26.13;;;12.68;;
62994;SDS011;49086;52.300;4.850;2022-12-22T15:34:36;29.58;;;13.02;;
62994;SDS011;49086;52.300;4.850;2022-12-22T15:37:01;29.08;;;15.00;;
62994;SDS011;49086;52.300;4.850;2022-12-22T15:39:34;35.85;;;14.82;;
62994;SDS011;49086;52.300;4.850;2022-12-22T15:42:08;30.33;;;14.57;;
62994;SDS011;49086;52.300;4.850;2022-12-22T15:44:33;32.40;;;14.37;;
62994;SDS011;49086;52.300;4.850;2022-12-22T15:46:58;27.70;;;13.37;;
62994;SDS011;49086;52.300;4.850;2022-12-22T15:49:29;30.35;;;14.15;;
62994;SDS011;49086;52.300;4.850;2022-12-22T15:52:09;32.75;;;13.82;;
62994;SDS011;49086;52.300;4.850;2022-12-22T15:54:42;32.80;;;14.57;;
62994;SDS011;49086;52.300;4.850;2022-12-22T15:57:09;32.85;;;16.10;;
62994;SDS011;49086;52.300;4.850;2022-12-22T15:59:36;33.47;;;14.68;;
62994;SDS011;49086;52.300;4.850;2022-12-22T16:02:08;38.33;;;16.65;;
62994;SDS011;49086;52.300;4.850;2022-12-22T16:04:34;35.28;;;15.55;;
62994;SDS011;49086;52.300;4.850;2022-12-22T16:06:59;33.67;;;15.35;;
62994;SDS011;49086;52.300;4.850;2022-12-22T16:09:29;36.83;;;15.35;;
62994;SDS011;49086;52.300;4.850;2022-12-22T16:11:57;37.90;;;16.65;;
62994;SDS011;49086;52.300;4.850;2022-12-22T16:14:44;32.55;;;16.73;;
62994;SDS011;49086;52.300;4.850;2022-12-22T16:17:29;34.80;;;17.10;;
62994;SDS011;49086;52.300;4.850;2022-12-22T16:20:00;39.40;;;17.38;;
62994;SDS011;49086;52.300;4.850;2022-12-22T16:22:31;40.45;;;17.95;;
62994;SDS011;49086;52.300;4.850;2022-12-22T16:25:20;41.85;;;19.00;;
62994;SDS011;49086;52.300;4.850;2022-12-22T16:28:05;38.70;;;18.88;;
62994;SDS011;49086;52.300;4.850;2022-12-22T16:31:03;43.55;;;19.05;;
62994;SDS011;49086;52.300;4.850;2022-12-22T16:33:30;37.00;;;17.33;;
62994;SDS011;49086;52.300;4.850;2022-12-22T16:35:57;38.95;;;18.88;;
62994;SDS011;49086;52.300;4.850;2022-12-22T16:38:24;41.00;;;18.55;;
62994;SDS011;49086;52.300;4.850;2022-12-22T16:40:50;40.92;;;18.88;;
62994;SDS011;49086;52.300;4.850;2022-12-22T16:43:23;45.20;;;19.80;;
62994;SDS011;49086;52.300;4.850;2022-12-22T16:45:49;39.03;;;17.67;;
62994;SDS011;49086;52.300;4.850;2022-12-22T16:48:25;42.80;;;19.48;;
62994;SDS011;49086;52.300;4.850;2022-12-22T16:50:53;43.75;;;18.92;;
62994;SDS011;49086;52.300;4.850;2022-12-22T16:53:20;38.83;;;18.35;;
62994;SDS011;49086;52.300;4.850;2022-12-22T16:55:48;39.85;;;18.45;;
62994;SDS011;49086;52.300;4.850;2022-12-22T16:58:14;38.58;;;17.30;;
62994;SDS011;49086;52.300;4.850;2022-12-22T17:00:40;40.38;;;16.83;;
62994;SDS011;49086;52.300;4.850;2022-12-22T17:03:12;39.25;;;18.20;;
62994;SDS011;49086;52.300;4.850;2022-12-22T17:05:42;38.33;;;17.05;;
62994;SDS011;49086;52.300;4.850;2022-12-22T17:08:10;38.85;;;17.23;;
62994;SDS011;49086;52.300;4.850;2022-12-22T17:10:39;38.53;;;17.30;;
62994;SDS011;49086;52.300;4.850;2022-12-22T17:13:04;36.40;;;16.90;;
62994;SDS011;49086;52.300;4.850;2022-12-22T17:15:33;37.97;;;17.90;;
62994;SDS011;49086;52.300;4.850;2022-12-22T17:17:58;41.20;;;16.98;;
62994;SDS011;49086;52.300;4.850;2022-12-22T17:20:25;36.10;;;16.27;;
62994;SDS011;49086;52.300;4.850;2022-12-22T17:22:59;37.70;;;18.08;;
62994;SDS011;49086;52.300;4.850;2022-12-22T17:25:26;29.98;;;15.45;;
62994;SDS011;49086;52.300;4.850;2022-12-22T17:27:53;36.65;;;15.98;;
62994;SDS011;49086;52.300;4.850;2022-12-22T17:30:20;33.70;;;15.55;;
62994;SDS011;49086;52.300;4.850;2022-12-22T17:32:46;33.25;;;15.38;;
62994;SDS011;49086;52.300;4.850;2022-12-22T17:35:13;30.73;;;14.75;;
62994;SDS011;49086;52.300;4.850;2022-12-22T17:37:40;28.33;;;14.75;;
62994;SDS011;49086;52.300;4.850;2022-12-22T17:40:09;31.42;;;15.48;;
62994;SDS011;49086;52.300;4.850;2022-12-22T17:42:36;28.85;;;14.48;;
62994;SDS011;49086;52.300;4.850;2022-12-22T17:45:04;34.55;;;16.17;;
62994;SDS011;49086;52.300;4.850;2022-12-22T17:47:31;31.45;;;15.60;;
62994;SDS011;49086;52.300;4.850;2022-12-22T17:49:56;31.40;;;15.50;;
62994;SDS011;49086;52.300;4.850;2022-12-22T17:52:22;32.53;;;15.68;;
62994;SDS011;49086;52.300;4.850;2022-12-22T17:54:49;30.05;;;15.10;;
62994;SDS011;49086;52.300;4.850;2022-12-22T17:57:23;35.42;;;15.13;;
62994;SDS011;49086;52.300;4.850;2022-12-22T17:59:50;33.50;;;14.73;;
62994;SDS011;49086;52.300;4.850;2022-12-22T18:02:17;29.25;;;13.05;;
62994;SDS011;49086;52.300;4.850;2022-12-22T18:04:42;31.75;;;14.65;;
62994;SDS011;49086;52.300;4.850;2022-12-22T18:07:10;27.17;;;13.98;;
62994;SDS011;49086;52.300;4.850;2022-12-22T18:09:40;29.45;;;14.23;;
62994;SDS011;49086;52.300;4.850;2022-12-22T18:12:11;29.13;;;13.52;;
62994;SDS011;49086;52.300;4.850;2022-12-22T18:14:38;28.98;;;14.13;;
62994;SDS011;49086;52.300;4.850;2022-12-22T18:17:03;28.90;;;13.75;;
62994;SDS011;49086;52.300;4.850;2022-12-22T18:19:30;25.63;;;12.32;;
62994;SDS011;49086;52.300;4.850;2022-12-22T18:21:55;26.70;;;12.43;;
62994;SDS011;49086;52.300;4.850;2022-12-22T18:24:20;21.23;;;10.50;;